Hauptseite
METAR-TAF:

METAR-TAF

Flughäfen :

Flughafen Gibraltar

Gibraltar, Gibraltar

Breite: 36-09N, Länge: 005-21W, Höhe: 5 m

Beobachtung

Neuester Wetterbericht von vor 27 Minuten, um 10:50 UTC
Wind 11 kt aus West
Temperatur 13°C
Luftfeuchtigkeit 58%
Luftdruck 1022 hPa
Sichtweite 10 km oder mehr
Leicht bewölkt in der Höhe von 2800 ft
Aufgelockert bewölkt in der Höhe von 16000 ft
Durchbrochene Bewölkung in der Höhe von 25000 ft

METAR: LXGB 221050Z 27011KT 9999 FEW028 SCT160 BKN250 13/05 Q1022 NOSIG

Zeit: 12:17 (11:17 UTC)

Prognose

Neuester Wetterbericht von vor 3 Stunden und 37 Minuten, um 07:40 UTC
Gültige Prognose vom 22 um 09 UTC bis 22 um 18 UTC
Wind 10 kt aus West
Sichtweite 10 km oder mehr
Leicht bewölkt in der Höhe von 3000 ft
Zeitweise
vom 22 um 11 UTC bis 22 um 18 UTC
Wind 15 kt aus West, Böen bis zu 25 kt

TAF: LXGB 220740Z 2209/2218 26010KT 9999 FEW030 TEMPO 2211/2218 28015G25KT

Wetterbeobachtungen und Prognosen von mehr als 4000 Flughäfen (METAR und TAF Bericht).

Die verfügbaren Stationen werden durch gelbe und rote Markierungen auf der Karte dargestellt.

Führen Sie die Maus auf sie, um den Namen der Station zu sehen.

Darauf klicken, um die Beobachtung von Wetterbeobachtungen und Prognosen zu sehen.

Um die Karte zu ändern : klicken Sie auf den grünen Tasten mit einem schwarzen Kreuz Zum Vergrößern, auf den grünen Button mit einem Gedankenstrich zu verkleinern, oder auf die grünen Pfeile für benachbarte Karten.


METAR-TAF: